sensor_id;sensor_type;location;lat;lon;timestamp;P1;durP1;ratioP1;P2;durP2;ratioP2
25990;SDS011;13779;-33.886;151.198;2023-07-13T00:01:15;13.15;;;6.15;;
25990;SDS011;13779;-33.886;151.198;2023-07-13T00:03:46;10.07;;;6.68;;
25990;SDS011;13779;-33.886;151.198;2023-07-13T00:06:17;13.57;;;6.20;;
25990;SDS011;13779;-33.886;151.198;2023-07-13T00:11:18;9.43;;;6.10;;
25990;SDS011;13779;-33.886;151.198;2023-07-13T00:13:48;8.65;;;5.97;;
25990;SDS011;13779;-33.886;151.198;2023-07-13T00:16:19;10.93;;;5.50;;
25990;SDS011;13779;-33.886;151.198;2023-07-13T00:18:50;12.47;;;5.90;;
25990;SDS011;13779;-33.886;151.198;2023-07-13T00:21:21;12.55;;;5.95;;
25990;SDS011;13779;-33.886;151.198;2023-07-13T00:23:51;8.48;;;5.05;;
25990;SDS011;13779;-33.886;151.198;2023-07-13T00:26:21;10.52;;;5.18;;
25990;SDS011;13779;-33.886;151.198;2023-07-13T00:28:51;10.10;;;5.40;;
25990;SDS011;13779;-33.886;151.198;2023-07-13T00:31:21;12.45;;;4.40;;
25990;SDS011;13779;-33.886;151.198;2023-07-13T00:33:52;11.10;;;5.20;;
25990;SDS011;13779;-33.886;151.198;2023-07-13T00:36:22;10.65;;;4.47;;
25990;SDS011;13779;-33.886;151.198;2023-07-13T00:38:52;8.20;;;4.53;;
25990;SDS011;13779;-33.886;151.198;2023-07-13T00:41:22;7.95;;;4.65;;
25990;SDS011;13779;-33.886;151.198;2023-07-13T00:43:52;8.05;;;4.43;;
25990;SDS011;13779;-33.886;151.198;2023-07-13T00:48:58;9.65;;;4.43;;
25990;SDS011;13779;-33.886;151.198;2023-07-13T00:54:18;9.00;;;3.95;;
25990;SDS011;13779;-33.886;151.198;2023-07-13T00:56:56;7.10;;;4.25;;
25990;SDS011;13779;-33.886;151.198;2023-07-13T00:59:29;11.40;;;5.22;;
25990;SDS011;13779;-33.886;151.198;2023-07-13T01:02:00;10.98;;;5.65;;
25990;SDS011;13779;-33.886;151.198;2023-07-13T01:04:31;7.40;;;4.47;;
25990;SDS011;13779;-33.886;151.198;2023-07-13T01:07:02;8.27;;;4.00;;
25990;SDS011;13779;-33.886;151.198;2023-07-13T01:09:32;8.63;;;4.30;;
25990;SDS011;13779;-33.886;151.198;2023-07-13T01:12:02;8.02;;;3.72;;
25990;SDS011;13779;-33.886;151.198;2023-07-13T01:14:33;11.57;;;3.88;;
25990;SDS011;13779;-33.886;151.198;2023-07-13T01:17:03;6.00;;;3.95;;
25990;SDS011;13779;-33.886;151.198;2023-07-13T01:19:41;10.17;;;4.10;;
25990;SDS011;13779;-33.886;151.198;2023-07-13T01:22:16;10.05;;;3.92;;
25990;SDS011;13779;-33.886;151.198;2023-07-13T01:24:47;6.60;;;3.78;;
25990;SDS011;13779;-33.886;151.198;2023-07-13T01:27:20;12.17;;;4.23;;
25990;SDS011;13779;-33.886;151.198;2023-07-13T01:29:53;8.70;;;4.30;;
25990;SDS011;13779;-33.886;151.198;2023-07-13T01:32:30;9.30;;;3.70;;
25990;SDS011;13779;-33.886;151.198;2023-07-13T01:35:01;8.45;;;3.90;;
25990;SDS011;13779;-33.886;151.198;2023-07-13T01:37:31;7.20;;;3.53;;
25990;SDS011;13779;-33.886;151.198;2023-07-13T01:40:04;6.88;;;3.63;;
25990;SDS011;13779;-33.886;151.198;2023-07-13T01:42:36;10.45;;;3.42;;
25990;SDS011;13779;-33.886;151.198;2023-07-13T01:45:07;7.90;;;3.10;;
25990;SDS011;13779;-33.886;151.198;2023-07-13T01:47:37;8.40;;;3.30;;
25990;SDS011;13779;-33.886;151.198;2023-07-13T01:50:08;7.80;;;3.33;;
25990;SDS011;13779;-33.886;151.198;2023-07-13T01:52:39;5.85;;;2.80;;
25990;SDS011;13779;-33.886;151.198;2023-07-13T01:55:09;7.88;;;2.92;;
25990;SDS011;13779;-33.886;151.198;2023-07-13T01:57:39;7.57;;;2.65;;
25990;SDS011;13779;-33.886;151.198;2023-07-13T02:00:10;6.95;;;3.33;;
25990;SDS011;13779;-33.886;151.198;2023-07-13T02:02:42;4.47;;;2.35;;
25990;SDS011;13779;-33.886;151.198;2023-07-13T02:05:12;4.97;;;2.75;;
25990;SDS011;13779;-33.886;151.198;2023-07-13T02:07:43;7.85;;;2.33;;
25990;SDS011;13779;-33.886;151.198;2023-07-13T02:10:13;5.28;;;1.98;;
25990;SDS011;13779;-33.886;151.198;2023-07-13T02:12:44;6.20;;;2.90;;
25990;SDS011;13779;-33.886;151.198;2023-07-13T02:15:14;7.20;;;2.33;;
25990;SDS011;13779;-33.886;151.198;2023-07-13T02:17:44;6.22;;;2.13;;
25990;SDS011;13779;-33.886;151.198;2023-07-13T02:20:14;3.23;;;1.80;;
25990;SDS011;13779;-33.886;151.198;2023-07-13T02:22:44;8.55;;;1.92;;
25990;SDS011;13779;-33.886;151.198;2023-07-13T02:25:15;6.25;;;2.00;;
25990;SDS011;13779;-33.886;151.198;2023-07-13T02:27:45;5.55;;;1.80;;
25990;SDS011;13779;-33.886;151.198;2023-07-13T02:30:15;3.53;;;1.77;;
25990;SDS011;13779;-33.886;151.198;2023-07-13T02:32:45;4.55;;;2.22;;
25990;SDS011;13779;-33.886;151.198;2023-07-13T02:35:16;5.25;;;1.98;;
25990;SDS011;13779;-33.886;151.198;2023-07-13T02:37:46;5.82;;;2.20;;
25990;SDS011;13779;-33.886;151.198;2023-07-13T02:40:16;6.95;;;2.22;;
25990;SDS011;13779;-33.886;151.198;2023-07-13T02:42:46;3.63;;;2.17;;
25990;SDS011;13779;-33.886;151.198;2023-07-13T02:45:16;3.08;;;2.10;;
25990;SDS011;13779;-33.886;151.198;2023-07-13T02:47:46;2.90;;;1.70;;
25990;SDS011;13779;-33.886;151.198;2023-07-13T02:50:16;4.55;;;1.73;;
25990;SDS011;13779;-33.886;151.198;2023-07-13T02:52:47;7.25;;;2.20;;
25990;SDS011;13779;-33.886;151.198;2023-07-13T02:55:17;6.70;;;2.30;;
25990;SDS011;13779;-33.886;151.198;2023-07-13T02:57:47;7.70;;;2.40;;
25990;SDS011;13779;-33.886;151.198;2023-07-13T03:00:18;6.22;;;2.08;;
25990;SDS011;13779;-33.886;151.198;2023-07-13T03:02:48;6.70;;;2.45;;
25990;SDS011;13779;-33.886;151.198;2023-07-13T03:05:18;6.72;;;2.67;;
25990;SDS011;13779;-33.886;151.198;2023-07-13T03:07:48;7.22;;;2.47;;
25990;SDS011;13779;-33.886;151.198;2023-07-13T03:10:19;8.38;;;2.88;;
25990;SDS011;13779;-33.886;151.198;2023-07-13T03:12:50;7.05;;;2.83;;
25990;SDS011;13779;-33.886;151.198;2023-07-13T03:15:20;7.60;;;2.53;;
25990;SDS011;13779;-33.886;151.198;2023-07-13T03:17:50;6.60;;;2.80;;
25990;SDS011;13779;-33.886;151.198;2023-07-13T03:20:21;5.95;;;2.70;;
25990;SDS011;13779;-33.886;151.198;2023-07-13T03:22:51;4.90;;;2.53;;
25990;SDS011;13779;-33.886;151.198;2023-07-13T03:25:21;7.93;;;2.10;;
25990;SDS011;13779;-33.886;151.198;2023-07-13T03:27:51;10.50;;;2.40;;
25990;SDS011;13779;-33.886;151.198;2023-07-13T03:30:21;4.32;;;2.13;;
25990;SDS011;13779;-33.886;151.198;2023-07-13T03:32:52;4.07;;;2.30;;
25990;SDS011;13779;-33.886;151.198;2023-07-13T03:35:22;8.05;;;2.63;;
25990;SDS011;13779;-33.886;151.198;2023-07-13T03:37:52;7.25;;;2.78;;
25990;SDS011;13779;-33.886;151.198;2023-07-13T03:40:23;9.98;;;2.40;;
25990;SDS011;13779;-33.886;151.198;2023-07-13T03:42:54;6.43;;;2.15;;
25990;SDS011;13779;-33.886;151.198;2023-07-13T03:45:24;5.53;;;2.55;;
25990;SDS011;13779;-33.886;151.198;2023-07-13T03:47:54;4.65;;;2.35;;
25990;SDS011;13779;-33.886;151.198;2023-07-13T03:50:24;5.17;;;2.17;;
25990;SDS011;13779;-33.886;151.198;2023-07-13T03:52:55;4.95;;;2.03;;
25990;SDS011;13779;-33.886;151.198;2023-07-13T03:55:26;11.25;;;2.97;;
25990;SDS011;13779;-33.886;151.198;2023-07-13T03:58:00;8.00;;;2.33;;
25990;SDS011;13779;-33.886;151.198;2023-07-13T04:00:51;4.78;;;2.22;;
25990;SDS011;13779;-33.886;151.198;2023-07-13T04:03:22;8.90;;;2.17;;
25990;SDS011;13779;-33.886;151.198;2023-07-13T04:05:52;5.43;;;1.90;;
25990;SDS011;13779;-33.886;151.198;2023-07-13T04:08:23;7.75;;;2.50;;
25990;SDS011;13779;-33.886;151.198;2023-07-13T04:10:54;6.10;;;1.92;;
25990;SDS011;13779;-33.886;151.198;2023-07-13T04:13:25;7.72;;;2.88;;
25990;SDS011;13779;-33.886;151.198;2023-07-13T04:15:56;6.20;;;2.20;;
25990;SDS011;13779;-33.886;151.198;2023-07-13T04:18:26;5.65;;;2.15;;
25990;SDS011;13779;-33.886;151.198;2023-07-13T04:20:56;5.57;;;1.90;;
25990;SDS011;13779;-33.886;151.198;2023-07-13T04:23:26;4.72;;;1.75;;
25990;SDS011;13779;-33.886;151.198;2023-07-13T04:25:57;5.22;;;2.13;;
25990;SDS011;13779;-33.886;151.198;2023-07-13T04:28:27;6.38;;;2.33;;
25990;SDS011;13779;-33.886;151.198;2023-07-13T04:30:57;7.43;;;2.43;;
25990;SDS011;13779;-33.886;151.198;2023-07-13T04:33:27;3.70;;;2.08;;
25990;SDS011;13779;-33.886;151.198;2023-07-13T04:35:58;3.95;;;2.17;;
25990;SDS011;13779;-33.886;151.198;2023-07-13T04:38:31;3.35;;;1.67;;
25990;SDS011;13779;-33.886;151.198;2023-07-13T04:41:02;3.95;;;1.77;;
25990;SDS011;13779;-33.886;151.198;2023-07-13T04:43:34;2.90;;;1.83;;
25990;SDS011;13779;-33.886;151.198;2023-07-13T04:46:08;6.53;;;2.17;;
25990;SDS011;13779;-33.886;151.198;2023-07-13T04:48:41;7.15;;;1.85;;
25990;SDS011;13779;-33.886;151.198;2023-07-13T04:51:12;8.05;;;2.17;;
25990;SDS011;13779;-33.886;151.198;2023-07-13T04:56:12;7.82;;;2.20;;
25990;SDS011;13779;-33.886;151.198;2023-07-13T04:58:42;5.82;;;1.88;;
25990;SDS011;13779;-33.886;151.198;2023-07-13T05:01:12;2.33;;;1.40;;
25990;SDS011;13779;-33.886;151.198;2023-07-13T05:03:42;7.63;;;1.77;;
25990;SDS011;13779;-33.886;151.198;2023-07-13T05:06:13;9.40;;;2.10;;
25990;SDS011;13779;-33.886;151.198;2023-07-13T05:08:43;5.88;;;1.52;;
25990;SDS011;13779;-33.886;151.198;2023-07-13T05:11:13;6.95;;;2.13;;
25990;SDS011;13779;-33.886;151.198;2023-07-13T05:13:43;5.43;;;1.67;;
25990;SDS011;13779;-33.886;151.198;2023-07-13T05:16:13;2.72;;;1.60;;
25990;SDS011;13779;-33.886;151.198;2023-07-13T05:18:44;2.88;;;1.65;;
25990;SDS011;13779;-33.886;151.198;2023-07-13T05:21:14;5.68;;;1.67;;
25990;SDS011;13779;-33.886;151.198;2023-07-13T05:23:44;2.05;;;1.48;;
25990;SDS011;13779;-33.886;151.198;2023-07-13T05:26:25;3.97;;;1.67;;
25990;SDS011;13779;-33.886;151.198;2023-07-13T05:28:55;4.22;;;2.17;;
25990;SDS011;13779;-33.886;151.198;2023-07-13T05:31:25;4.35;;;1.80;;
25990;SDS011;13779;-33.886;151.198;2023-07-13T05:33:56;4.40;;;1.35;;
25990;SDS011;13779;-33.886;151.198;2023-07-13T05:36:26;4.75;;;1.38;;
25990;SDS011;13779;-33.886;151.198;2023-07-13T05:38:57;1.45;;;0.95;;
25990;SDS011;13779;-33.886;151.198;2023-07-13T05:41:27;3.67;;;1.58;;
25990;SDS011;13779;-33.886;151.198;2023-07-13T05:43:57;12.35;;;2.90;;
25990;SDS011;13779;-33.886;151.198;2023-07-13T05:46:28;8.60;;;3.40;;
25990;SDS011;13779;-33.886;151.198;2023-07-13T05:48:59;8.75;;;3.47;;
25990;SDS011;13779;-33.886;151.198;2023-07-13T05:51:30;6.78;;;2.88;;
25990;SDS011;13779;-33.886;151.198;2023-07-13T05:54:00;9.77;;;3.17;;
25990;SDS011;13779;-33.886;151.198;2023-07-13T05:56:31;8.73;;;3.10;;
25990;SDS011;13779;-33.886;151.198;2023-07-13T05:59:01;8.70;;;3.70;;
25990;SDS011;13779;-33.886;151.198;2023-07-13T06:01:31;9.50;;;3.53;;
25990;SDS011;13779;-33.886;151.198;2023-07-13T06:04:02;9.17;;;2.97;;
25990;SDS011;13779;-33.886;151.198;2023-07-13T06:06:33;10.60;;;3.20;;
25990;SDS011;13779;-33.886;151.198;2023-07-13T06:09:03;8.57;;;3.45;;
25990;SDS011;13779;-33.886;151.198;2023-07-13T06:11:33;5.97;;;2.97;;
25990;SDS011;13779;-33.886;151.198;2023-07-13T06:14:03;10.70;;;3.53;;
25990;SDS011;13779;-33.886;151.198;2023-07-13T06:16:33;6.47;;;3.00;;
25990;SDS011;13779;-33.886;151.198;2023-07-13T06:19:04;6.50;;;3.13;;
25990;SDS011;13779;-33.886;151.198;2023-07-13T06:21:34;6.50;;;3.10;;
25990;SDS011;13779;-33.886;151.198;2023-07-13T06:24:04;6.88;;;2.80;;
25990;SDS011;13779;-33.886;151.198;2023-07-13T06:26:35;4.43;;;2.80;;
25990;SDS011;13779;-33.886;151.198;2023-07-13T06:29:05;6.50;;;3.97;;
25990;SDS011;13779;-33.886;151.198;2023-07-13T06:31:35;3.58;;;2.70;;
25990;SDS011;13779;-33.886;151.198;2023-07-13T06:34:05;8.77;;;2.70;;
25990;SDS011;13779;-33.886;151.198;2023-07-13T06:36:35;6.65;;;2.92;;
25990;SDS011;13779;-33.886;151.198;2023-07-13T06:39:07;7.55;;;2.97;;
25990;SDS011;13779;-33.886;151.198;2023-07-13T06:41:37;9.25;;;3.35;;
25990;SDS011;13779;-33.886;151.198;2023-07-13T06:44:07;7.10;;;3.20;;
25990;SDS011;13779;-33.886;151.198;2023-07-13T06:46:37;7.63;;;2.63;;
25990;SDS011;13779;-33.886;151.198;2023-07-13T06:49:08;8.45;;;3.45;;
25990;SDS011;13779;-33.886;151.198;2023-07-13T06:51:39;6.72;;;3.00;;
25990;SDS011;13779;-33.886;151.198;2023-07-13T06:54:09;9.40;;;3.40;;
25990;SDS011;13779;-33.886;151.198;2023-07-13T06:56:39;7.57;;;3.17;;
25990;SDS011;13779;-33.886;151.198;2023-07-13T06:59:09;7.55;;;3.28;;
25990;SDS011;13779;-33.886;151.198;2023-07-13T07:01:39;8.60;;;3.20;;
25990;SDS011;13779;-33.886;151.198;2023-07-13T07:04:10;7.97;;;2.83;;
25990;SDS011;13779;-33.886;151.198;2023-07-13T07:06:40;7.35;;;2.90;;
25990;SDS011;13779;-33.886;151.198;2023-07-13T07:09:10;7.35;;;3.42;;
25990;SDS011;13779;-33.886;151.198;2023-07-13T07:11:40;7.72;;;3.40;;
25990;SDS011;13779;-33.886;151.198;2023-07-13T07:14:27;11.65;;;3.88;;
25990;SDS011;13779;-33.886;151.198;2023-07-13T07:16:57;10.02;;;3.35;;
25990;SDS011;13779;-33.886;151.198;2023-07-13T07:19:29;6.72;;;3.30;;
25990;SDS011;13779;-33.886;151.198;2023-07-13T07:21:59;6.85;;;3.65;;
25990;SDS011;13779;-33.886;151.198;2023-07-13T07:24:29;8.63;;;3.33;;
25990;SDS011;13779;-33.886;151.198;2023-07-13T07:27:00;8.45;;;3.97;;
25990;SDS011;13779;-33.886;151.198;2023-07-13T07:29:33;11.90;;;4.65;;
25990;SDS011;13779;-33.886;151.198;2023-07-13T07:32:12;7.57;;;3.58;;
25990;SDS011;13779;-33.886;151.198;2023-07-13T07:35:02;8.38;;;4.07;;
25990;SDS011;13779;-33.886;151.198;2023-07-13T07:37:32;9.20;;;4.93;;
25990;SDS011;13779;-33.886;151.198;2023-07-13T07:40:06;7.95;;;3.50;;
25990;SDS011;13779;-33.886;151.198;2023-07-13T07:42:42;10.27;;;3.83;;
25990;SDS011;13779;-33.886;151.198;2023-07-13T07:45:12;8.45;;;4.18;;
25990;SDS011;13779;-33.886;151.198;2023-07-13T07:47:43;7.93;;;3.93;;
25990;SDS011;13779;-33.886;151.198;2023-07-13T07:50:13;4.97;;;3.38;;
25990;SDS011;13779;-33.886;151.198;2023-07-13T07:52:44;5.75;;;3.40;;
25990;SDS011;13779;-33.886;151.198;2023-07-13T07:55:14;7.07;;;3.10;;
25990;SDS011;13779;-33.886;151.198;2023-07-13T07:57:47;5.88;;;3.05;;
25990;SDS011;13779;-33.886;151.198;2023-07-13T08:00:20;9.35;;;3.80;;
25990;SDS011;13779;-33.886;151.198;2023-07-13T08:02:53;6.85;;;3.03;;
25990;SDS011;13779;-33.886;151.198;2023-07-13T08:05:43;6.30;;;3.58;;
25990;SDS011;13779;-33.886;151.198;2023-07-13T08:08:34;8.90;;;3.65;;
25990;SDS011;13779;-33.886;151.198;2023-07-13T08:11:05;9.02;;;3.53;;
25990;SDS011;13779;-33.886;151.198;2023-07-13T08:13:40;6.05;;;3.33;;
25990;SDS011;13779;-33.886;151.198;2023-07-13T08:16:10;5.97;;;3.50;;
25990;SDS011;13779;-33.886;151.198;2023-07-13T08:18:40;6.65;;;3.80;;
25990;SDS011;13779;-33.886;151.198;2023-07-13T08:21:10;11.45;;;4.20;;
25990;SDS011;13779;-33.886;151.198;2023-07-13T08:23:40;10.45;;;5.38;;
25990;SDS011;13779;-33.886;151.198;2023-07-13T08:26:10;13.57;;;7.22;;
25990;SDS011;13779;-33.886;151.198;2023-07-13T08:28:41;13.77;;;5.47;;
25990;SDS011;13779;-33.886;151.198;2023-07-13T08:31:11;14.10;;;7.10;;
25990;SDS011;13779;-33.886;151.198;2023-07-13T08:33:42;13.18;;;7.38;;
25990;SDS011;13779;-33.886;151.198;2023-07-13T08:36:12;14.38;;;8.07;;
25990;SDS011;13779;-33.886;151.198;2023-07-13T08:38:43;15.77;;;7.63;;
25990;SDS011;13779;-33.886;151.198;2023-07-13T08:41:16;16.35;;;7.82;;
25990;SDS011;13779;-33.886;151.198;2023-07-13T08:43:49;22.35;;;9.75;;
25990;SDS011;13779;-33.886;151.198;2023-07-13T08:49:14;15.60;;;8.02;;
25990;SDS011;13779;-33.886;151.198;2023-07-13T08:51:54;18.70;;;6.90;;
25990;SDS011;13779;-33.886;151.198;2023-07-13T08:54:37;17.98;;;7.80;;
25990;SDS011;13779;-33.886;151.198;2023-07-13T08:57:15;12.60;;;6.20;;
25990;SDS011;13779;-33.886;151.198;2023-07-13T08:59:48;19.58;;;8.43;;
25990;SDS011;13779;-33.886;151.198;2023-07-13T09:02:26;14.98;;;8.13;;
25990;SDS011;13779;-33.886;151.198;2023-07-13T09:05:22;17.08;;;8.20;;
25990;SDS011;13779;-33.886;151.198;2023-07-13T09:08:15;28.20;;;13.43;;
25990;SDS011;13779;-33.886;151.198;2023-07-13T09:17:11;30.00;;;12.80;;
25990;SDS011;13779;-33.886;151.198;2023-07-13T09:19:59;202.93;;;98.10;;
25990;SDS011;13779;-33.886;151.198;2023-07-13T09:22:46;156.75;;;77.63;;
25990;SDS011;13779;-33.886;151.198;2023-07-13T09:27:55;109.00;;;55.03;;
25990;SDS011;13779;-33.886;151.198;2023-07-13T09:33:26;75.40;;;36.38;;
25990;SDS011;13779;-33.886;151.198;2023-07-13T09:35:58;82.38;;;44.22;;
25990;SDS011;13779;-33.886;151.198;2023-07-13T09:38:29;79.03;;;43.10;;
25990;SDS011;13779;-33.886;151.198;2023-07-13T09:44:00;274.98;;;180.05;;
25990;SDS011;13779;-33.886;151.198;2023-07-13T09:46:43;67.10;;;36.00;;
25990;SDS011;13779;-33.886;151.198;2023-07-13T09:49:16;220.98;;;124.72;;
25990;SDS011;13779;-33.886;151.198;2023-07-13T09:51:47;110.30;;;58.53;;
25990;SDS011;13779;-33.886;151.198;2023-07-13T09:56:56;19.33;;;10.10;;
25990;SDS011;13779;-33.886;151.198;2023-07-13T09:59:35;25.70;;;14.93;;
25990;SDS011;13779;-33.886;151.198;2023-07-13T10:05:11;48.22;;;30.83;;
25990;SDS011;13779;-33.886;151.198;2023-07-13T10:07:44;19.10;;;9.48;;
25990;SDS011;13779;-33.886;151.198;2023-07-13T10:10:16;19.20;;;10.80;;
25990;SDS011;13779;-33.886;151.198;2023-07-13T10:12:49;26.27;;;11.57;;
25990;SDS011;13779;-33.886;151.198;2023-07-13T10:15:24;13.80;;;8.48;;
25990;SDS011;13779;-33.886;151.198;2023-07-13T10:17:55;13.13;;;7.97;;
25990;SDS011;13779;-33.886;151.198;2023-07-13T10:20:27;14.52;;;8.55;;
25990;SDS011;13779;-33.886;151.198;2023-07-13T10:23:16;16.27;;;8.55;;
25990;SDS011;13779;-33.886;151.198;2023-07-13T10:25:53;15.80;;;7.88;;
25990;SDS011;13779;-33.886;151.198;2023-07-13T10:28:33;14.75;;;7.35;;
25990;SDS011;13779;-33.886;151.198;2023-07-13T10:31:09;14.05;;;7.60;;
25990;SDS011;13779;-33.886;151.198;2023-07-13T10:33:42;12.20;;;7.50;;
25990;SDS011;13779;-33.886;151.198;2023-07-13T10:39:02;15.43;;;6.70;;
25990;SDS011;13779;-33.886;151.198;2023-07-13T10:41:35;16.85;;;6.57;;
25990;SDS011;13779;-33.886;151.198;2023-07-13T10:44:15;15.07;;;7.00;;
25990;SDS011;13779;-33.886;151.198;2023-07-13T10:47:07;10.65;;;6.80;;
25990;SDS011;13779;-33.886;151.198;2023-07-13T10:49:43;14.23;;;7.93;;
25990;SDS011;13779;-33.886;151.198;2023-07-13T10:55:38;12.95;;;8.40;;
25990;SDS011;13779;-33.886;151.198;2023-07-13T10:58:14;13.25;;;6.72;;
25990;SDS011;13779;-33.886;151.198;2023-07-13T11:01:12;11.27;;;6.55;;
25990;SDS011;13779;-33.886;151.198;2023-07-13T11:03:50;10.75;;;6.20;;
25990;SDS011;13779;-33.886;151.198;2023-07-13T11:12:01;13.30;;;7.22;;
25990;SDS011;13779;-33.886;151.198;2023-07-13T11:15:26;15.15;;;7.88;;
25990;SDS011;13779;-33.886;151.198;2023-07-13T11:25:46;18.52;;;9.57;;
25990;SDS011;13779;-33.886;151.198;2023-07-13T11:28:18;15.57;;;8.30;;
25990;SDS011;13779;-33.886;151.198;2023-07-13T11:36:15;16.73;;;9.18;;
25990;SDS011;13779;-33.886;151.198;2023-07-13T11:39:04;12.93;;;7.82;;
25990;SDS011;13779;-33.886;151.198;2023-07-13T11:41:59;15.77;;;8.38;;
25990;SDS011;13779;-33.886;151.198;2023-07-13T11:44:33;11.88;;;7.72;;
25990;SDS011;13779;-33.886;151.198;2023-07-13T11:49:43;13.52;;;6.85;;
25990;SDS011;13779;-33.886;151.198;2023-07-13T11:52:19;14.02;;;7.35;;
25990;SDS011;13779;-33.886;151.198;2023-07-13T11:54:55;12.65;;;7.45;;
25990;SDS011;13779;-33.886;151.198;2023-07-13T12:00:03;14.73;;;7.00;;
25990;SDS011;13779;-33.886;151.198;2023-07-13T12:02:44;20.13;;;6.45;;
25990;SDS011;13779;-33.886;151.198;2023-07-13T12:05:18;11.63;;;6.65;;
25990;SDS011;13779;-33.886;151.198;2023-07-13T12:07:49;12.93;;;6.65;;
25990;SDS011;13779;-33.886;151.198;2023-07-13T12:10:24;11.63;;;7.63;;
25990;SDS011;13779;-33.886;151.198;2023-07-13T12:13:05;12.55;;;6.68;;
25990;SDS011;13779;-33.886;151.198;2023-07-13T12:15:38;18.63;;;7.45;;
25990;SDS011;13779;-33.886;151.198;2023-07-13T12:18:29;19.33;;;7.10;;
25990;SDS011;13779;-33.886;151.198;2023-07-13T12:21:02;14.02;;;7.85;;
25990;SDS011;13779;-33.886;151.198;2023-07-13T12:23:33;14.00;;;8.40;;
25990;SDS011;13779;-33.886;151.198;2023-07-13T12:26:04;14.57;;;8.38;;
25990;SDS011;13779;-33.886;151.198;2023-07-13T12:28:39;13.90;;;8.05;;
25990;SDS011;13779;-33.886;151.198;2023-07-13T12:31:29;13.73;;;8.02;;
25990;SDS011;13779;-33.886;151.198;2023-07-13T12:34:00;17.02;;;7.68;;
25990;SDS011;13779;-33.886;151.198;2023-07-13T12:36:47;13.82;;;8.73;;
25990;SDS011;13779;-33.886;151.198;2023-07-13T12:39:26;14.63;;;7.07;;
25990;SDS011;13779;-33.886;151.198;2023-07-13T12:47:30;17.27;;;7.72;;
25990;SDS011;13779;-33.886;151.198;2023-07-13T12:50:14;16.05;;;7.03;;
25990;SDS011;13779;-33.886;151.198;2023-07-13T12:53:01;15.02;;;6.95;;
25990;SDS011;13779;-33.886;151.198;2023-07-13T12:58:40;16.65;;;8.15;;
25990;SDS011;13779;-33.886;151.198;2023-07-13T13:01:13;14.20;;;6.93;;
25990;SDS011;13779;-33.886;151.198;2023-07-13T13:03:48;16.08;;;7.85;;
25990;SDS011;13779;-33.886;151.198;2023-07-13T13:06:27;15.85;;;7.25;;
25990;SDS011;13779;-33.886;151.198;2023-07-13T13:08:59;16.85;;;8.43;;
25990;SDS011;13779;-33.886;151.198;2023-07-13T13:11:30;15.30;;;8.35;;
25990;SDS011;13779;-33.886;151.198;2023-07-13T13:14:00;12.93;;;7.38;;
25990;SDS011;13779;-33.886;151.198;2023-07-13T13:16:33;21.23;;;7.90;;
25990;SDS011;13779;-33.886;151.198;2023-07-13T13:19:15;14.43;;;7.15;;
25990;SDS011;13779;-33.886;151.198;2023-07-13T13:21:47;13.55;;;7.13;;
25990;SDS011;13779;-33.886;151.198;2023-07-13T13:24:21;17.70;;;7.47;;
25990;SDS011;13779;-33.886;151.198;2023-07-13T13:26:57;16.98;;;7.78;;
25990;SDS011;13779;-33.886;151.198;2023-07-13T13:29:31;17.67;;;8.43;;
25990;SDS011;13779;-33.886;151.198;2023-07-13T13:32:01;16.10;;;7.85;;
25990;SDS011;13779;-33.886;151.198;2023-07-13T13:34:33;17.48;;;7.45;;
25990;SDS011;13779;-33.886;151.198;2023-07-13T13:37:04;15.10;;;6.80;;
25990;SDS011;13779;-33.886;151.198;2023-07-13T13:39:59;17.52;;;7.85;;
25990;SDS011;13779;-33.886;151.198;2023-07-13T13:42:35;18.60;;;7.47;;
25990;SDS011;13779;-33.886;151.198;2023-07-13T13:45:07;15.80;;;8.10;;
25990;SDS011;13779;-33.886;151.198;2023-07-13T13:47:39;19.25;;;6.97;;
25990;SDS011;13779;-33.886;151.198;2023-07-13T13:50:16;19.55;;;7.43;;
25990;SDS011;13779;-33.886;151.198;2023-07-13T13:52:50;16.67;;;8.10;;
25990;SDS011;13779;-33.886;151.198;2023-07-13T13:55:20;18.63;;;7.80;;
25990;SDS011;13779;-33.886;151.198;2023-07-13T13:57:52;13.80;;;7.65;;
25990;SDS011;13779;-33.886;151.198;2023-07-13T14:00:22;16.17;;;7.15;;
25990;SDS011;13779;-33.886;151.198;2023-07-13T14:02:53;14.63;;;7.30;;
25990;SDS011;13779;-33.886;151.198;2023-07-13T14:05:25;19.65;;;7.70;;
25990;SDS011;13779;-33.886;151.198;2023-07-13T14:07:56;18.67;;;7.53;;
25990;SDS011;13779;-33.886;151.198;2023-07-13T14:10:28;14.80;;;7.50;;
25990;SDS011;13779;-33.886;151.198;2023-07-13T14:12:58;13.23;;;7.30;;
25990;SDS011;13779;-33.886;151.198;2023-07-13T14:15:29;15.98;;;7.25;;
25990;SDS011;13779;-33.886;151.198;2023-07-13T14:17:59;19.42;;;7.75;;
25990;SDS011;13779;-33.886;151.198;2023-07-13T14:20:29;18.10;;;7.30;;
25990;SDS011;13779;-33.886;151.198;2023-07-13T14:22:59;19.92;;;7.63;;
25990;SDS011;13779;-33.886;151.198;2023-07-13T14:25:30;19.27;;;8.48;;
25990;SDS011;13779;-33.886;151.198;2023-07-13T14:28:00;20.60;;;7.43;;
25990;SDS011;13779;-33.886;151.198;2023-07-13T14:30:39;14.98;;;7.50;;
25990;SDS011;13779;-33.886;151.198;2023-07-13T14:33:11;19.33;;;7.85;;
25990;SDS011;13779;-33.886;151.198;2023-07-13T14:35:41;14.60;;;7.35;;
25990;SDS011;13779;-33.886;151.198;2023-07-13T14:38:13;12.35;;;6.53;;
25990;SDS011;13779;-33.886;151.198;2023-07-13T14:40:45;16.00;;;7.28;;
25990;SDS011;13779;-33.886;151.198;2023-07-13T14:43:16;15.73;;;7.28;;
25990;SDS011;13779;-33.886;151.198;2023-07-13T14:45:47;16.60;;;6.80;;
25990;SDS011;13779;-33.886;151.198;2023-07-13T14:48:23;15.35;;;6.40;;
25990;SDS011;13779;-33.886;151.198;2023-07-13T14:50:54;13.73;;;6.68;;
25990;SDS011;13779;-33.886;151.198;2023-07-13T14:53:28;13.10;;;6.63;;
25990;SDS011;13779;-33.886;151.198;2023-07-13T14:55:58;12.75;;;7.07;;
25990;SDS011;13779;-33.886;151.198;2023-07-13T14:58:28;11.38;;;6.15;;
25990;SDS011;13779;-33.886;151.198;2023-07-13T15:01:00;12.20;;;6.43;;
25990;SDS011;13779;-33.886;151.198;2023-07-13T15:03:30;14.40;;;5.93;;
25990;SDS011;13779;-33.886;151.198;2023-07-13T15:06:04;8.40;;;5.30;;
25990;SDS011;13779;-33.886;151.198;2023-07-13T15:08:38;11.13;;;5.93;;
25990;SDS011;13779;-33.886;151.198;2023-07-13T15:11:11;10.40;;;5.03;;
25990;SDS011;13779;-33.886;151.198;2023-07-13T15:13:41;28.88;;;14.93;;
25990;SDS011;13779;-33.886;151.198;2023-07-13T15:16:18;13.30;;;5.88;;
25990;SDS011;13779;-33.886;151.198;2023-07-13T15:18:53;9.35;;;5.15;;
25990;SDS011;13779;-33.886;151.198;2023-07-13T15:21:23;9.68;;;5.38;;
25990;SDS011;13779;-33.886;151.198;2023-07-13T15:23:59;9.55;;;5.63;;
25990;SDS011;13779;-33.886;151.198;2023-07-13T15:26:31;10.25;;;5.00;;
25990;SDS011;13779;-33.886;151.198;2023-07-13T15:29:01;9.03;;;5.70;;
25990;SDS011;13779;-33.886;151.198;2023-07-13T15:31:32;8.35;;;4.30;;
25990;SDS011;13779;-33.886;151.198;2023-07-13T15:34:14;7.43;;;4.25;;
25990;SDS011;13779;-33.886;151.198;2023-07-13T15:36:49;10.95;;;4.45;;
25990;SDS011;13779;-33.886;151.198;2023-07-13T15:39:19;8.52;;;4.90;;
25990;SDS011;13779;-33.886;151.198;2023-07-13T15:41:50;6.78;;;4.25;;
25990;SDS011;13779;-33.886;151.198;2023-07-13T15:44:29;9.63;;;4.22;;
25990;SDS011;13779;-33.886;151.198;2023-07-13T15:47:00;7.53;;;3.78;;